sensor_id;sensor_type;location;lat;lon;timestamp;temperature;humidity
4687;DHT22;2357;47.316;-1.348;2022-07-10T00:00:08;24.50;99.90
4687;DHT22;2357;47.316;-1.348;2022-07-10T00:02:35;24.50;99.90
4687;DHT22;2357;47.316;-1.348;2022-07-10T00:05:01;24.20;99.90
4687;DHT22;2357;47.316;-1.348;2022-07-10T00:07:26;24.20;99.90
4687;DHT22;2357;47.316;-1.348;2022-07-10T00:09:52;24.30;99.90
4687;DHT22;2357;47.316;-1.348;2022-07-10T00:12:17;24.20;99.90
4687;DHT22;2357;47.316;-1.348;2022-07-10T00:14:43;24.20;99.90
4687;DHT22;2357;47.316;-1.348;2022-07-10T00:17:09;24.00;99.90
4687;DHT22;2357;47.316;-1.348;2022-07-10T00:19:34;24.10;99.90
4687;DHT22;2357;47.316;-1.348;2022-07-10T00:22:00;23.90;99.90
4687;DHT22;2357;47.316;-1.348;2022-07-10T00:24:26;23.80;99.90
4687;DHT22;2357;47.316;-1.348;2022-07-10T00:26:51;23.70;99.90
4687;DHT22;2357;47.316;-1.348;2022-07-10T00:29:17;23.70;99.90
4687;DHT22;2357;47.316;-1.348;2022-07-10T00:31:42;23.70;99.90
4687;DHT22;2357;47.316;-1.348;2022-07-10T00:34:08;23.70;99.90
4687;DHT22;2357;47.316;-1.348;2022-07-10T00:36:34;23.80;99.90
4687;DHT22;2357;47.316;-1.348;2022-07-10T00:38:59;23.70;99.90
4687;DHT22;2357;47.316;-1.348;2022-07-10T00:41:25;23.70;99.90
4687;DHT22;2357;47.316;-1.348;2022-07-10T00:43:58;23.70;99.90
4687;DHT22;2357;47.316;-1.348;2022-07-10T00:46:28;23.60;99.90
4687;DHT22;2357;47.316;-1.348;2022-07-10T00:48:54;23.60;99.90
4687;DHT22;2357;47.316;-1.348;2022-07-10T00:51:23;23.40;99.90
4687;DHT22;2357;47.316;-1.348;2022-07-10T00:53:49;23.50;99.90
4687;DHT22;2357;47.316;-1.348;2022-07-10T00:56:20;23.30;99.90
4687;DHT22;2357;47.316;-1.348;2022-07-10T00:58:47;23.30;99.90
4687;DHT22;2357;47.316;-1.348;2022-07-10T01:01:13;23.40;99.90
4687;DHT22;2357;47.316;-1.348;2022-07-10T01:03:40;23.30;99.90
4687;DHT22;2357;47.316;-1.348;2022-07-10T01:06:06;23.30;99.90
4687;DHT22;2357;47.316;-1.348;2022-07-10T01:08:33;23.10;99.90
4687;DHT22;2357;47.316;-1.348;2022-07-10T01:10:59;23.20;99.90
4687;DHT22;2357;47.316;-1.348;2022-07-10T01:13:26;23.10;99.90
4687;DHT22;2357;47.316;-1.348;2022-07-10T01:15:52;23.10;99.90
4687;DHT22;2357;47.316;-1.348;2022-07-10T01:18:18;23.10;99.90
4687;DHT22;2357;47.316;-1.348;2022-07-10T01:20:44;23.10;99.90
4687;DHT22;2357;47.316;-1.348;2022-07-10T01:23:10;22.90;99.90
4687;DHT22;2357;47.316;-1.348;2022-07-10T01:25:36;23.10;99.90
4687;DHT22;2357;47.316;-1.348;2022-07-10T01:28:01;22.90;99.90
4687;DHT22;2357;47.316;-1.348;2022-07-10T01:30:27;22.90;99.90
4687;DHT22;2357;47.316;-1.348;2022-07-10T01:32:53;23.00;99.90
4687;DHT22;2357;47.316;-1.348;2022-07-10T01:35:18;22.80;99.90
4687;DHT22;2357;47.316;-1.348;2022-07-10T01:37:44;22.70;99.90
4687;DHT22;2357;47.316;-1.348;2022-07-10T01:40:11;22.60;99.90
4687;DHT22;2357;47.316;-1.348;2022-07-10T01:42:38;22.70;99.90
4687;DHT22;2357;47.316;-1.348;2022-07-10T01:45:07;22.70;99.90
4687;DHT22;2357;47.316;-1.348;2022-07-10T01:47:33;22.60;99.90
4687;DHT22;2357;47.316;-1.348;2022-07-10T01:49:58;22.50;99.90
4687;DHT22;2357;47.316;-1.348;2022-07-10T01:52:24;22.40;99.90
4687;DHT22;2357;47.316;-1.348;2022-07-10T01:54:50;22.40;99.90
4687;DHT22;2357;47.316;-1.348;2022-07-10T01:57:16;22.50;99.90
4687;DHT22;2357;47.316;-1.348;2022-07-10T01:59:41;22.30;99.90
4687;DHT22;2357;47.316;-1.348;2022-07-10T02:02:07;22.20;99.90
4687;DHT22;2357;47.316;-1.348;2022-07-10T02:04:33;22.30;99.90
4687;DHT22;2357;47.316;-1.348;2022-07-10T02:07:16;22.30;99.90
4687;DHT22;2357;47.316;-1.348;2022-07-10T02:09:43;22.30;99.90
4687;DHT22;2357;47.316;-1.348;2022-07-10T02:12:11;22.30;99.90
4687;DHT22;2357;47.316;-1.348;2022-07-10T02:14:38;22.20;99.90
4687;DHT22;2357;47.316;-1.348;2022-07-10T02:17:05;22.00;99.90
4687;DHT22;2357;47.316;-1.348;2022-07-10T02:19:31;22.10;99.90
4687;DHT22;2357;47.316;-1.348;2022-07-10T02:21:57;22.10;99.90
4687;DHT22;2357;47.316;-1.348;2022-07-10T02:24:23;22.10;99.90
4687;DHT22;2357;47.316;-1.348;2022-07-10T02:26:49;22.00;99.90
4687;DHT22;2357;47.316;-1.348;2022-07-10T02:29:15;22.10;99.90
4687;DHT22;2357;47.316;-1.348;2022-07-10T02:31:40;22.00;99.90
4687;DHT22;2357;47.316;-1.348;2022-07-10T02:34:07;22.00;99.90
4687;DHT22;2357;47.316;-1.348;2022-07-10T02:36:33;21.80;99.90
4687;DHT22;2357;47.316;-1.348;2022-07-10T02:38:59;21.80;99.90
4687;DHT22;2357;47.316;-1.348;2022-07-10T02:41:26;21.90;99.90
4687;DHT22;2357;47.316;-1.348;2022-07-10T02:43:51;21.80;99.90
4687;DHT22;2357;47.316;-1.348;2022-07-10T02:46:17;21.80;99.90
4687;DHT22;2357;47.316;-1.348;2022-07-10T02:48:43;21.70;99.90
4687;DHT22;2357;47.316;-1.348;2022-07-10T02:51:08;21.70;99.90
4687;DHT22;2357;47.316;-1.348;2022-07-10T02:53:34;21.60;99.90
4687;DHT22;2357;47.316;-1.348;2022-07-10T02:56:00;21.70;99.90
4687;DHT22;2357;47.316;-1.348;2022-07-10T02:58:25;21.70;99.90
4687;DHT22;2357;47.316;-1.348;2022-07-10T03:00:51;21.70;99.90
4687;DHT22;2357;47.316;-1.348;2022-07-10T03:03:17;21.60;99.90
4687;DHT22;2357;47.316;-1.348;2022-07-10T03:05:44;21.50;99.90
4687;DHT22;2357;47.316;-1.348;2022-07-10T03:08:10;21.60;99.90
4687;DHT22;2357;47.316;-1.348;2022-07-10T03:10:36;21.60;99.90
4687;DHT22;2357;47.316;-1.348;2022-07-10T03:13:02;21.60;99.90
4687;DHT22;2357;47.316;-1.348;2022-07-10T03:15:28;21.50;99.90
4687;DHT22;2357;47.316;-1.348;2022-07-10T03:17:53;21.50;99.90
4687;DHT22;2357;47.316;-1.348;2022-07-10T03:20:19;21.60;99.90
4687;DHT22;2357;47.316;-1.348;2022-07-10T03:22:45;21.50;99.90
4687;DHT22;2357;47.316;-1.348;2022-07-10T03:25:10;21.60;99.90
4687;DHT22;2357;47.316;-1.348;2022-07-10T03:27:36;21.40;99.90
4687;DHT22;2357;47.316;-1.348;2022-07-10T03:30:03;21.40;99.90
4687;DHT22;2357;47.316;-1.348;2022-07-10T03:32:29;21.40;99.90
4687;DHT22;2357;47.316;-1.348;2022-07-10T03:34:54;21.40;99.90
4687;DHT22;2357;47.316;-1.348;2022-07-10T03:37:20;21.30;99.90
4687;DHT22;2357;47.316;-1.348;2022-07-10T03:39:46;21.30;99.90
4687;DHT22;2357;47.316;-1.348;2022-07-10T03:42:12;21.30;99.90
4687;DHT22;2357;47.316;-1.348;2022-07-10T03:44:37;21.40;99.90
4687;DHT22;2357;47.316;-1.348;2022-07-10T03:47:03;21.40;99.90
4687;DHT22;2357;47.316;-1.348;2022-07-10T03:49:29;21.30;99.90
4687;DHT22;2357;47.316;-1.348;2022-07-10T03:51:58;21.30;99.90
4687;DHT22;2357;47.316;-1.348;2022-07-10T03:54:24;21.20;99.90
4687;DHT22;2357;47.316;-1.348;2022-07-10T03:56:50;21.10;99.90
4687;DHT22;2357;47.316;-1.348;2022-07-10T03:59:34;21.10;99.90
4687;DHT22;2357;47.316;-1.348;2022-07-10T04:02:00;21.00;99.90
4687;DHT22;2357;47.316;-1.348;2022-07-10T04:04:25;21.00;99.90
4687;DHT22;2357;47.316;-1.348;2022-07-10T04:06:51;21.00;99.90
4687;DHT22;2357;47.316;-1.348;2022-07-10T04:09:17;21.10;99.90
4687;DHT22;2357;47.316;-1.348;2022-07-10T04:11:42;21.10;99.90
4687;DHT22;2357;47.316;-1.348;2022-07-10T04:14:08;21.00;99.90
4687;DHT22;2357;47.316;-1.348;2022-07-10T04:16:33;20.90;99.90
4687;DHT22;2357;47.316;-1.348;2022-07-10T04:18:59;21.10;99.90
4687;DHT22;2357;47.316;-1.348;2022-07-10T04:21:24;20.90;99.90
4687;DHT22;2357;47.316;-1.348;2022-07-10T04:23:50;20.90;99.90
4687;DHT22;2357;47.316;-1.348;2022-07-10T04:26:16;21.00;99.90
4687;DHT22;2357;47.316;-1.348;2022-07-10T04:28:41;21.00;99.90
4687;DHT22;2357;47.316;-1.348;2022-07-10T04:31:07;20.90;99.90
4687;DHT22;2357;47.316;-1.348;2022-07-10T04:33:32;20.80;99.90
4687;DHT22;2357;47.316;-1.348;2022-07-10T04:35:58;20.80;99.90
4687;DHT22;2357;47.316;-1.348;2022-07-10T04:38:24;20.80;99.90
4687;DHT22;2357;47.316;-1.348;2022-07-10T04:40:50;20.80;99.90
4687;DHT22;2357;47.316;-1.348;2022-07-10T04:43:15;20.70;99.90
4687;DHT22;2357;47.316;-1.348;2022-07-10T04:45:41;20.80;99.90
4687;DHT22;2357;47.316;-1.348;2022-07-10T04:48:06;20.80;99.90
4687;DHT22;2357;47.316;-1.348;2022-07-10T04:50:32;20.70;99.90
4687;DHT22;2357;47.316;-1.348;2022-07-10T04:52:58;20.60;99.90
4687;DHT22;2357;47.316;-1.348;2022-07-10T04:55:23;20.60;99.90
4687;DHT22;2357;47.316;-1.348;2022-07-10T04:57:49;20.50;99.90
4687;DHT22;2357;47.316;-1.348;2022-07-10T05:00:15;20.60;99.90
4687;DHT22;2357;47.316;-1.348;2022-07-10T05:02:41;20.60;99.90
4687;DHT22;2357;47.316;-1.348;2022-07-10T05:05:07;20.50;99.90
4687;DHT22;2357;47.316;-1.348;2022-07-10T05:07:33;20.60;99.90
4687;DHT22;2357;47.316;-1.348;2022-07-10T05:09:59;20.60;99.90
4687;DHT22;2357;47.316;-1.348;2022-07-10T05:12:24;20.60;99.90
4687;DHT22;2357;47.316;-1.348;2022-07-10T05:14:50;20.70;99.90
4687;DHT22;2357;47.316;-1.348;2022-07-10T05:17:16;20.70;99.90
4687;DHT22;2357;47.316;-1.348;2022-07-10T05:19:41;20.60;99.90
4687;DHT22;2357;47.316;-1.348;2022-07-10T05:22:07;20.60;99.90
4687;DHT22;2357;47.316;-1.348;2022-07-10T05:24:34;20.70;99.90
4687;DHT22;2357;47.316;-1.348;2022-07-10T05:27:00;20.60;99.90
4687;DHT22;2357;47.316;-1.348;2022-07-10T05:29:26;20.50;99.90
4687;DHT22;2357;47.316;-1.348;2022-07-10T05:31:51;20.50;99.90
4687;DHT22;2357;47.316;-1.348;2022-07-10T05:34:17;20.60;99.90
4687;DHT22;2357;47.316;-1.348;2022-07-10T05:36:42;20.50;99.90
4687;DHT22;2357;47.316;-1.348;2022-07-10T05:39:08;20.50;99.90
4687;DHT22;2357;47.316;-1.348;2022-07-10T05:41:33;20.60;99.90
4687;DHT22;2357;47.316;-1.348;2022-07-10T05:44:00;20.50;99.90
4687;DHT22;2357;47.316;-1.348;2022-07-10T05:46:26;20.50;99.90
4687;DHT22;2357;47.316;-1.348;2022-07-10T05:48:51;20.40;99.90
4687;DHT22;2357;47.316;-1.348;2022-07-10T05:51:17;20.60;99.90
4687;DHT22;2357;47.316;-1.348;2022-07-10T05:53:42;20.50;99.90
4687;DHT22;2357;47.316;-1.348;2022-07-10T05:56:08;20.40;99.90
4687;DHT22;2357;47.316;-1.348;2022-07-10T05:58:34;20.30;99.90
4687;DHT22;2357;47.316;-1.348;2022-07-10T06:00:59;20.30;99.90
4687;DHT22;2357;47.316;-1.348;2022-07-10T06:03:25;20.40;99.90
4687;DHT22;2357;47.316;-1.348;2022-07-10T06:05:51;20.40;99.90
4687;DHT22;2357;47.316;-1.348;2022-07-10T06:08:18;20.40;99.90
4687;DHT22;2357;47.316;-1.348;2022-07-10T06:10:44;20.50;99.90
4687;DHT22;2357;47.316;-1.348;2022-07-10T06:13:10;20.40;99.90
4687;DHT22;2357;47.316;-1.348;2022-07-10T06:15:36;20.40;99.90
4687;DHT22;2357;47.316;-1.348;2022-07-10T06:18:02;20.40;99.90
4687;DHT22;2357;47.316;-1.348;2022-07-10T06:20:28;20.40;99.90
4687;DHT22;2357;47.316;-1.348;2022-07-10T06:22:54;20.50;99.90
4687;DHT22;2357;47.316;-1.348;2022-07-10T06:25:19;20.50;99.90
4687;DHT22;2357;47.316;-1.348;2022-07-10T06:27:45;20.50;99.90
4687;DHT22;2357;47.316;-1.348;2022-07-10T06:30:11;20.50;99.90
4687;DHT22;2357;47.316;-1.348;2022-07-10T06:32:37;20.50;99.90
4687;DHT22;2357;47.316;-1.348;2022-07-10T06:35:03;20.40;99.90
4687;DHT22;2357;47.316;-1.348;2022-07-10T06:37:30;20.50;99.90
4687;DHT22;2357;47.316;-1.348;2022-07-10T06:39:56;20.60;99.90
4687;DHT22;2357;47.316;-1.348;2022-07-10T06:42:22;20.60;99.90
4687;DHT22;2357;47.316;-1.348;2022-07-10T06:44:48;20.70;99.90
4687;DHT22;2357;47.316;-1.348;2022-07-10T06:47:16;20.70;99.90
4687;DHT22;2357;47.316;-1.348;2022-07-10T06:50:05;20.80;99.90
4687;DHT22;2357;47.316;-1.348;2022-07-10T06:52:32;20.80;99.90
4687;DHT22;2357;47.316;-1.348;2022-07-10T06:54:59;20.80;99.90
4687;DHT22;2357;47.316;-1.348;2022-07-10T06:57:25;20.80;99.90
4687;DHT22;2357;47.316;-1.348;2022-07-10T06:59:50;20.80;99.90
4687;DHT22;2357;47.316;-1.348;2022-07-10T07:02:17;20.90;99.90
4687;DHT22;2357;47.316;-1.348;2022-07-10T07:04:43;20.90;99.90
4687;DHT22;2357;47.316;-1.348;2022-07-10T07:07:10;20.90;99.90
4687;DHT22;2357;47.316;-1.348;2022-07-10T07:09:35;20.90;99.90
4687;DHT22;2357;47.316;-1.348;2022-07-10T07:12:01;20.90;99.90
4687;DHT22;2357;47.316;-1.348;2022-07-10T07:14:27;21.00;99.90
4687;DHT22;2357;47.316;-1.348;2022-07-10T07:16:53;21.00;99.90
4687;DHT22;2357;47.316;-1.348;2022-07-10T07:19:39;21.00;99.90
4687;DHT22;2357;47.316;-1.348;2022-07-10T07:22:23;21.00;99.90
4687;DHT22;2357;47.316;-1.348;2022-07-10T07:25:09;21.10;99.90
4687;DHT22;2357;47.316;-1.348;2022-07-10T07:27:36;21.10;99.90
4687;DHT22;2357;47.316;-1.348;2022-07-10T07:30:12;21.20;99.90
4687;DHT22;2357;47.316;-1.348;2022-07-10T07:32:42;21.30;99.90
4687;DHT22;2357;47.316;-1.348;2022-07-10T07:35:09;21.30;99.90
4687;DHT22;2357;47.316;-1.348;2022-07-10T07:40:03;21.40;99.90
4687;DHT22;2357;47.316;-1.348;2022-07-10T07:42:29;21.40;99.90
4687;DHT22;2357;47.316;-1.348;2022-07-10T07:44:55;21.50;99.90
4687;DHT22;2357;47.316;-1.348;2022-07-10T07:47:20;21.50;99.90
4687;DHT22;2357;47.316;-1.348;2022-07-10T07:49:46;21.60;99.90
4687;DHT22;2357;47.316;-1.348;2022-07-10T07:52:12;21.60;99.90
4687;DHT22;2357;47.316;-1.348;2022-07-10T07:54:39;21.70;99.90
4687;DHT22;2357;47.316;-1.348;2022-07-10T07:57:05;21.70;99.90
4687;DHT22;2357;47.316;-1.348;2022-07-10T07:59:31;21.80;99.90
4687;DHT22;2357;47.316;-1.348;2022-07-10T08:01:56;21.80;99.90
4687;DHT22;2357;47.316;-1.348;2022-07-10T08:04:22;21.90;99.90
4687;DHT22;2357;47.316;-1.348;2022-07-10T08:06:47;21.90;99.90
4687;DHT22;2357;47.316;-1.348;2022-07-10T08:09:20;21.90;99.90
4687;DHT22;2357;47.316;-1.348;2022-07-10T08:11:46;22.00;99.90
4687;DHT22;2357;47.316;-1.348;2022-07-10T08:14:13;22.00;99.90
4687;DHT22;2357;47.316;-1.348;2022-07-10T08:16:40;22.00;99.90
4687;DHT22;2357;47.316;-1.348;2022-07-10T08:19:06;22.00;99.90
4687;DHT22;2357;47.316;-1.348;2022-07-10T08:21:32;22.10;99.90
4687;DHT22;2357;47.316;-1.348;2022-07-10T08:23:57;22.20;99.90
4687;DHT22;2357;47.316;-1.348;2022-07-10T08:26:24;22.20;99.90
4687;DHT22;2357;47.316;-1.348;2022-07-10T08:28:49;22.30;99.90
4687;DHT22;2357;47.316;-1.348;2022-07-10T08:31:15;22.40;99.90
4687;DHT22;2357;47.316;-1.348;2022-07-10T08:33:41;22.40;99.90
4687;DHT22;2357;47.316;-1.348;2022-07-10T08:36:07;22.50;99.90
4687;DHT22;2357;47.316;-1.348;2022-07-10T08:38:32;22.50;99.90
4687;DHT22;2357;47.316;-1.348;2022-07-10T08:40:59;22.60;99.90
4687;DHT22;2357;47.316;-1.348;2022-07-10T08:43:28;22.70;99.90
4687;DHT22;2357;47.316;-1.348;2022-07-10T08:45:54;22.70;99.90
4687;DHT22;2357;47.316;-1.348;2022-07-10T08:48:24;22.80;99.90
4687;DHT22;2357;47.316;-1.348;2022-07-10T08:50:53;22.80;99.90
4687;DHT22;2357;47.316;-1.348;2022-07-10T08:53:30;22.90;99.90
4687;DHT22;2357;47.316;-1.348;2022-07-10T08:55:57;23.00;99.90
4687;DHT22;2357;47.316;-1.348;2022-07-10T08:58:23;23.10;99.90
4687;DHT22;2357;47.316;-1.348;2022-07-10T09:00:49;23.20;99.90
4687;DHT22;2357;47.316;-1.348;2022-07-10T09:03:15;23.20;99.90
4687;DHT22;2357;47.316;-1.348;2022-07-10T09:05:40;23.30;99.90
4687;DHT22;2357;47.316;-1.348;2022-07-10T09:08:28;23.40;99.90
4687;DHT22;2357;47.316;-1.348;2022-07-10T09:11:16;23.50;99.90
4687;DHT22;2357;47.316;-1.348;2022-07-10T09:13:51;23.50;99.90
4687;DHT22;2357;47.316;-1.348;2022-07-10T09:16:29;23.60;99.90
4687;DHT22;2357;47.316;-1.348;2022-07-10T09:18:55;23.70;99.90
4687;DHT22;2357;47.316;-1.348;2022-07-10T09:21:22;23.80;99.90
4687;DHT22;2357;47.316;-1.348;2022-07-10T09:23:48;23.80;99.90
4687;DHT22;2357;47.316;-1.348;2022-07-10T09:26:14;23.80;99.90
4687;DHT22;2357;47.316;-1.348;2022-07-10T09:28:40;23.90;99.90
4687;DHT22;2357;47.316;-1.348;2022-07-10T09:31:06;24.00;99.90
4687;DHT22;2357;47.316;-1.348;2022-07-10T09:33:32;24.10;99.90
4687;DHT22;2357;47.316;-1.348;2022-07-10T09:36:05;24.20;99.90
4687;DHT22;2357;47.316;-1.348;2022-07-10T09:43:55;24.50;99.90
4687;DHT22;2357;47.316;-1.348;2022-07-10T09:46:33;24.50;99.90
4687;DHT22;2357;47.316;-1.348;2022-07-10T09:51:38;24.80;99.90
4687;DHT22;2357;47.316;-1.348;2022-07-10T09:54:05;24.80;99.90
4687;DHT22;2357;47.316;-1.348;2022-07-10T09:56:40;24.90;99.90
4687;DHT22;2357;47.316;-1.348;2022-07-10T09:59:09;25.00;99.90
4687;DHT22;2357;47.316;-1.348;2022-07-10T10:01:36;25.10;99.90
4687;DHT22;2357;47.316;-1.348;2022-07-10T10:04:04;25.20;99.90
4687;DHT22;2357;47.316;-1.348;2022-07-10T10:06:30;25.30;99.90
4687;DHT22;2357;47.316;-1.348;2022-07-10T10:11:25;25.40;99.90
4687;DHT22;2357;47.316;-1.348;2022-07-10T10:13:52;25.40;99.90
4687;DHT22;2357;47.316;-1.348;2022-07-10T10:16:19;25.50;99.90
4687;DHT22;2357;47.316;-1.348;2022-07-10T10:18:47;25.60;99.90
4687;DHT22;2357;47.316;-1.348;2022-07-10T10:21:32;25.70;99.90
4687;DHT22;2357;47.316;-1.348;2022-07-10T10:24:01;25.80;99.90
4687;DHT22;2357;47.316;-1.348;2022-07-10T10:26:27;25.80;99.90
4687;DHT22;2357;47.316;-1.348;2022-07-10T10:28:54;25.90;99.90
4687;DHT22;2357;47.316;-1.348;2022-07-10T10:31:22;25.90;99.90
4687;DHT22;2357;47.316;-1.348;2022-07-10T10:33:48;26.00;99.90
4687;DHT22;2357;47.316;-1.348;2022-07-10T10:39:12;26.20;99.90
4687;DHT22;2357;47.316;-1.348;2022-07-10T10:41:46;26.30;99.90
4687;DHT22;2357;47.316;-1.348;2022-07-10T10:49:17;26.50;99.90
4687;DHT22;2357;47.316;-1.348;2022-07-10T10:54:31;26.60;99.90
4687;DHT22;2357;47.316;-1.348;2022-07-10T10:57:12;26.70;99.90
4687;DHT22;2357;47.316;-1.348;2022-07-10T10:59:48;26.80;99.90
4687;DHT22;2357;47.316;-1.348;2022-07-10T11:08:02;27.00;99.90
4687;DHT22;2357;47.316;-1.348;2022-07-10T11:10:36;27.00;99.90
4687;DHT22;2357;47.316;-1.348;2022-07-10T11:13:17;27.10;99.90
4687;DHT22;2357;47.316;-1.348;2022-07-10T11:15:47;27.20;99.90
4687;DHT22;2357;47.316;-1.348;2022-07-10T11:18:19;27.30;99.90
4687;DHT22;2357;47.316;-1.348;2022-07-10T11:20:50;27.30;99.90
4687;DHT22;2357;47.316;-1.348;2022-07-10T11:26:08;27.70;99.90
4687;DHT22;2357;47.316;-1.348;2022-07-10T11:28:41;27.60;99.90
4687;DHT22;2357;47.316;-1.348;2022-07-10T11:31:11;27.80;99.90
4687;DHT22;2357;47.316;-1.348;2022-07-10T11:33:44;27.90;99.90
4687;DHT22;2357;47.316;-1.348;2022-07-10T11:36:22;27.90;99.90
4687;DHT22;2357;47.316;-1.348;2022-07-10T11:38:57;28.10;99.90
4687;DHT22;2357;47.316;-1.348;2022-07-10T11:41:24;28.20;99.90
4687;DHT22;2357;47.316;-1.348;2022-07-10T11:43:52;28.30;99.90
4687;DHT22;2357;47.316;-1.348;2022-07-10T11:46:19;28.20;99.90
4687;DHT22;2357;47.316;-1.348;2022-07-10T11:48:47;28.30;99.90
4687;DHT22;2357;47.316;-1.348;2022-07-10T11:51:26;28.40;99.90
4687;DHT22;2357;47.316;-1.348;2022-07-10T11:54:32;28.50;99.90
4687;DHT22;2357;47.316;-1.348;2022-07-10T11:56:52;28.50;99.90
4687;DHT22;2357;47.316;-1.348;2022-07-10T11:59:23;28.50;99.90
4687;DHT22;2357;47.316;-1.348;2022-07-10T12:01:51;28.60;99.90
4687;DHT22;2357;47.316;-1.348;2022-07-10T12:04:19;28.80;99.90
4687;DHT22;2357;47.316;-1.348;2022-07-10T12:06:46;28.80;99.90
4687;DHT22;2357;47.316;-1.348;2022-07-10T12:09:17;28.90;99.90
4687;DHT22;2357;47.316;-1.348;2022-07-10T12:11:44;29.10;99.90
4687;DHT22;2357;47.316;-1.348;2022-07-10T12:14:22;29.20;99.90
4687;DHT22;2357;47.316;-1.348;2022-07-10T12:16:50;29.30;99.90
4687;DHT22;2357;47.316;-1.348;2022-07-10T12:19:27;29.40;99.90
4687;DHT22;2357;47.316;-1.348;2022-07-10T12:21:56;29.60;99.90
4687;DHT22;2357;47.316;-1.348;2022-07-10T12:24:22;29.80;99.90
4687;DHT22;2357;47.316;-1.348;2022-07-10T12:26:49;29.90;99.90
4687;DHT22;2357;47.316;-1.348;2022-07-10T12:29:26;30.00;99.90
4687;DHT22;2357;47.316;-1.348;2022-07-10T12:31:54;30.10;99.90
4687;DHT22;2357;47.316;-1.348;2022-07-10T12:34:39;30.10;99.90
4687;DHT22;2357;47.316;-1.348;2022-07-10T12:37:12;30.20;99.90
4687;DHT22;2357;47.316;-1.348;2022-07-10T12:39:49;30.30;99.90
4687;DHT22;2357;47.316;-1.348;2022-07-10T12:42:30;30.40;99.90
4687;DHT22;2357;47.316;-1.348;2022-07-10T12:45:12;30.60;99.90
4687;DHT22;2357;47.316;-1.348;2022-07-10T12:47:48;30.60;99.90
4687;DHT22;2357;47.316;-1.348;2022-07-10T12:50:15;30.70;99.90
4687;DHT22;2357;47.316;-1.348;2022-07-10T12:52:44;30.80;99.90
4687;DHT22;2357;47.316;-1.348;2022-07-10T12:55:18;30.80;99.90
4687;DHT22;2357;47.316;-1.348;2022-07-10T12:57:58;30.90;99.90
4687;DHT22;2357;47.316;-1.348;2022-07-10T13:00:28;31.10;99.90
4687;DHT22;2357;47.316;-1.348;2022-07-10T13:03:16;31.10;99.90
4687;DHT22;2357;47.316;-1.348;2022-07-10T13:05:43;31.10;99.90
4687;DHT22;2357;47.316;-1.348;2022-07-10T13:08:12;31.10;99.90
4687;DHT22;2357;47.316;-1.348;2022-07-10T13:10:42;31.00;99.90
4687;DHT22;2357;47.316;-1.348;2022-07-10T13:13:09;31.10;99.90
4687;DHT22;2357;47.316;-1.348;2022-07-10T13:15:35;31.30;99.90
4687;DHT22;2357;47.316;-1.348;2022-07-10T13:18:20;31.40;99.90
4687;DHT22;2357;47.316;-1.348;2022-07-10T13:20:48;31.20;99.90
4687;DHT22;2357;47.316;-1.348;2022-07-10T13:23:14;31.50;99.90
4687;DHT22;2357;47.316;-1.348;2022-07-10T13:25:41;31.70;99.90
4687;DHT22;2357;47.316;-1.348;2022-07-10T13:28:07;31.70;99.90
4687;DHT22;2357;47.316;-1.348;2022-07-10T13:30:34;31.70;99.90
4687;DHT22;2357;47.316;-1.348;2022-07-10T13:33:00;31.90;99.90
4687;DHT22;2357;47.316;-1.348;2022-07-10T13:35:30;32.00;99.90
4687;DHT22;2357;47.316;-1.348;2022-07-10T13:37:57;31.90;99.90
4687;DHT22;2357;47.316;-1.348;2022-07-10T13:40:27;31.80;99.90
4687;DHT22;2357;47.316;-1.348;2022-07-10T13:42:53;32.00;99.90
4687;DHT22;2357;47.316;-1.348;2022-07-10T13:45:19;32.00;99.90
4687;DHT22;2357;47.316;-1.348;2022-07-10T13:47:45;32.00;99.90
4687;DHT22;2357;47.316;-1.348;2022-07-10T13:50:11;31.80;99.90
4687;DHT22;2357;47.316;-1.348;2022-07-10T13:52:36;32.10;99.90
4687;DHT22;2357;47.316;-1.348;2022-07-10T13:55:02;32.20;99.90
4687;DHT22;2357;47.316;-1.348;2022-07-10T13:57:30;32.30;99.90
4687;DHT22;2357;47.316;-1.348;2022-07-10T13:59:55;32.40;99.90
4687;DHT22;2357;47.316;-1.348;2022-07-10T14:02:21;32.50;99.90
4687;DHT22;2357;47.316;-1.348;2022-07-10T14:04:47;32.50;99.90
4687;DHT22;2357;47.316;-1.348;2022-07-10T14:07:12;32.60;99.90
4687;DHT22;2357;47.316;-1.348;2022-07-10T14:09:38;32.70;99.90
4687;DHT22;2357;47.316;-1.348;2022-07-10T14:12:04;32.50;99.90
4687;DHT22;2357;47.316;-1.348;2022-07-10T14:14:30;32.70;99.90
4687;DHT22;2357;47.316;-1.348;2022-07-10T14:16:56;32.70;99.90
4687;DHT22;2357;47.316;-1.348;2022-07-10T14:19:21;32.70;99.90
4687;DHT22;2357;47.316;-1.348;2022-07-10T14:21:48;32.70;99.90
4687;DHT22;2357;47.316;-1.348;2022-07-10T14:24:13;32.90;99.90
4687;DHT22;2357;47.316;-1.348;2022-07-10T14:26:39;33.00;99.90
4687;DHT22;2357;47.316;-1.348;2022-07-10T14:29:05;32.90;99.90
4687;DHT22;2357;47.316;-1.348;2022-07-10T14:31:31;32.90;99.90
4687;DHT22;2357;47.316;-1.348;2022-07-10T14:33:57;33.00;99.90
4687;DHT22;2357;47.316;-1.348;2022-07-10T14:36:22;33.10;99.90
4687;DHT22;2357;47.316;-1.348;2022-07-10T14:38:53;32.90;99.90
4687;DHT22;2357;47.316;-1.348;2022-07-10T14:41:19;33.00;99.90
4687;DHT22;2357;47.316;-1.348;2022-07-10T14:43:45;33.00;99.90
4687;DHT22;2357;47.316;-1.348;2022-07-10T14:46:11;33.10;99.90
4687;DHT22;2357;47.316;-1.348;2022-07-10T14:48:37;33.20;99.90
4687;DHT22;2357;47.316;-1.348;2022-07-10T14:51:02;33.00;99.90
4687;DHT22;2357;47.316;-1.348;2022-07-10T14:53:28;33.10;99.90
4687;DHT22;2357;47.316;-1.348;2022-07-10T14:55:55;33.20;99.90
4687;DHT22;2357;47.316;-1.348;2022-07-10T14:58:21;33.40;99.90
4687;DHT22;2357;47.316;-1.348;2022-07-10T15:00:47;33.40;99.90
4687;DHT22;2357;47.316;-1.348;2022-07-10T15:03:12;33.30;99.90
4687;DHT22;2357;47.316;-1.348;2022-07-10T15:05:38;33.20;99.90
4687;DHT22;2357;47.316;-1.348;2022-07-10T15:08:04;33.30;99.90
4687;DHT22;2357;47.316;-1.348;2022-07-10T15:10:30;33.20;99.90
4687;DHT22;2357;47.316;-1.348;2022-07-10T15:12:57;33.20;99.90
4687;DHT22;2357;47.316;-1.348;2022-07-10T15:15:24;33.20;99.90
4687;DHT22;2357;47.316;-1.348;2022-07-10T15:17:50;33.00;99.90
4687;DHT22;2357;47.316;-1.348;2022-07-10T15:20:16;32.90;99.90
4687;DHT22;2357;47.316;-1.348;2022-07-10T15:22:44;32.20;99.90
4687;DHT22;2357;47.316;-1.348;2022-07-10T15:25:10;32.40;99.90
4687;DHT22;2357;47.316;-1.348;2022-07-10T15:27:36;32.60;99.90
4687;DHT22;2357;47.316;-1.348;2022-07-10T15:30:02;32.80;99.90
4687;DHT22;2357;47.316;-1.348;2022-07-10T15:32:29;32.90;99.90
4687;DHT22;2357;47.316;-1.348;2022-07-10T15:34:55;33.00;99.90
4687;DHT22;2357;47.316;-1.348;2022-07-10T15:37:20;33.10;99.90
4687;DHT22;2357;47.316;-1.348;2022-07-10T15:39:48;33.10;99.90
4687;DHT22;2357;47.316;-1.348;2022-07-10T15:42:14;33.10;99.90
4687;DHT22;2357;47.316;-1.348;2022-07-10T15:44:39;33.20;99.90
4687;DHT22;2357;47.316;-1.348;2022-07-10T15:47:06;32.90;99.90
4687;DHT22;2357;47.316;-1.348;2022-07-10T15:49:31;33.10;99.90
4687;DHT22;2357;47.316;-1.348;2022-07-10T15:51:58;33.10;99.90
4687;DHT22;2357;47.316;-1.348;2022-07-10T15:54:27;33.00;99.90
4687;DHT22;2357;47.316;-1.348;2022-07-10T15:56:53;33.10;99.90
4687;DHT22;2357;47.316;-1.348;2022-07-10T15:59:19;33.10;99.90
4687;DHT22;2357;47.316;-1.348;2022-07-10T16:01:52;33.00;99.90
4687;DHT22;2357;47.316;-1.348;2022-07-10T16:04:19;33.10;99.90
4687;DHT22;2357;47.316;-1.348;2022-07-10T16:06:45;33.00;99.90
4687;DHT22;2357;47.316;-1.348;2022-07-10T16:09:11;33.10;99.90
4687;DHT22;2357;47.316;-1.348;2022-07-10T16:11:37;33.10;99.90
4687;DHT22;2357;47.316;-1.348;2022-07-10T16:14:03;33.00;99.90
4687;DHT22;2357;47.316;-1.348;2022-07-10T16:16:28;33.10;99.90
4687;DHT22;2357;47.316;-1.348;2022-07-10T16:18:54;33.10;99.90